TAF and METAR

METAR for Ivalo Airport

EFIV 230920Z 03007KT 350V060 9999 OVC031 02/M06 Q1021
Report created 23. mai 11:20
wind 7 knots from NNE (030°) Wind direction varies from N to ENE visibility > 10km overcast at 3100 feet Temperature 2° with dewpoint at -6° (Humidity 55.36%) Pressure 1021 hPa

TAF for Ivalo Airport

TAF EFIV 230835Z 2309/2311 02005KT 9999 BKN030
Report created 23. mai 10:35

between 23. mai 11:00 - 23. mai 13:00

wind 5 knots from NNE (020°) visibility > 10km broken clouds (~75% cover) at 3000 feet
Ivalo Airport in Finland at 148m

Latest 5 airports